DW1541 Weather Reports


Display with metric or nautical units.
time (UTC)temp
F
wind
direction
speed
MPH
gust
MPH
rain 1hr
in
rain 24hr
in
rain mn
in
humidity
%
barometer
mb
20181209191237 41 223 0.0 0.0 0.14 0.18 0.18 95 1022.0
20181209190215 42 240 0.0 0.0 0.10 0.14 0.14 95 1022.0
20181209185207 42 240 0.0 0.0 0.09 0.13 0.14 94 1021.9
20181209184135 42 226 0.0 0.0 0.06 0.12 0.12 94 1021.7
20181209183112 42 213 0.0 1.0 0.11 0.11 0.11 94 1021.4
20181209182115 42 107 0.0 0.0 0.07 0.09 0.10 94 1021.3
20181209181109 42 218 0.0 0.0 0.09 0.08 0.08 94 1021.1
20181209180117 42 136 0.0 0.0 0.12 0.07 0.07 93 1021.2
20181209175044 42 220 0.0 0.0 0.04 0.05 0.05 92 1021.3
20181209174021 42 143 0.0 0.0 0.07 0.05 0.04 90 1021.0
20181209173022 42 221 0.0 0.0 0.05 0.04 0.03 90 1020.6
20181209172014 42 124 0.0 0.0 0.00 0.03 0.02 90 1020.7
20181209171003 42 112 0.0 0.0 0.00 0.02 0.01 88 1020.5
20181209170024 43 141 0.0 0.0 0.00 0.02 0.01 86 1020.4
20181209165035 43 118 0.0 0.0 0.00 0.02 0.01 85 1020.6
20181209164018 43 106 0.0 0.0 0.00 0.02 0.01 82 1020.5
20181209163013 44 224 0.0 0.0 0.00 0.02 0.01 79 1020.8
20181209161951 44 209 0.0 0.0 0.00 0.01 0.00 78 1020.6
20181209160946 44 112 0.0 0.0 0.00 0.01 0.00 76 1020.5
20181209155948 44 217 0.0 1.0 0.00 0.01 0.00 73 1020.3
20181209154951 43 182 0.0 0.0 0.00 0.01 0.00 76 1020.4
20181209153947 44 244 0.0 0.0 0.00 0.01 0.00 77 1020.7
20181209152939 44 111 0.0 0.0 0.00 0.01 0.00 73 1020.6
20181209151953 44 240 0.0 0.0 0.00 0.01 0.00 73 1020.6
20181209151002 44 128 0.0 0.0 0.00 0.01 0.00 72 1020.7
20181209145951 44 107 0.0 0.0 0.00 0.01 0.00 73 1020.4
20181209144957 44 117 0.0 0.0 0.00 0.01 0.00 73 1020.3
20181209143932 44 196 0.0 0.0 0.00 0.01 0.00 69 1020.5
20181209142926 45 257 0.0 0.0 0.00 0.01 0.00 65 1020.6
20181209141853 45 165 0.0 0.0 0.00 0.01 0.00 65 1020.6
20181209140835 45 215 0.0 0.0 0.00 0.01 0.00 64 1020.7
20181209135830 46 216 0.0 0.0 0.00 0.01 0.00 63 1020.7
20181209134755 46 215 0.0 3.0 0.00 0.01 0.00 63 1020.5
20181209133741 45 136 0.0 3.0 0.00 0.01 0.00 63 1020.4
20181209132757 45 219 0.0 2.0 0.00 0.01 0.00 62 1020.1
20181209131818 45 163 0.0 0.0 0.00 0.01 0.00 64 1020.2
20181209130817 45 214 0.0 3.0 0.00 0.01 0.00 64 1020.2
20181209125815 44 96 0.0 4.0 0.00 0.01 0.00 65 1020.3
20181209124823 44 214 0.0 3.0 0.00 0.01 0.00 66 1020.4
20181209123825 44 173 0.0 3.0 0.00 0.01 0.00 64 1020.5
20181209122825 44 173 0.0 3.0 0.00 0.01 0.00 65 1020.6
20181209121847 44 306 0.0 3.0 0.00 0.01 0.00 65 1020.8
20181209120812 44 146 0.0 4.0 0.00 0.01 0.00 64 1020.9
20181209115816 44 207 0.0 5.0 0.00 0.01 0.00 64 1021.0
20181209114835 44 207 0.0 5.0 0.00 0.01 0.00 64 1021.1
20181209113758 44 209 0.0 4.0 0.00 0.01 0.00 64 1021.7
20181209112748 44 144 0.0 4.0 0.00 0.01 0.00 64 1021.8
20181209111744 44 102 0.0 4.0 0.00 0.01 0.00 64 1021.9
20181209110740 44 219 0.0 4.0 0.00 0.01 0.00 64 1022.0
20181209105715 44 148 0.0 2.0 0.00 0.01 0.00 64 1022.5
20181209104646 44 344 0.0 5.0 0.00 0.01 0.00 65 1022.7
20181209103610 44 194 0.0 2.0 0.00 0.01 0.00 64 1022.7
20181209102534 44 221 0.0 5.0 0.00 0.01 0.00 65 1022.9
20181209101539 43 94 0.0 5.0 0.00 0.01 0.00 65 1023.1
20181209100509 43 211 0.0 2.0 0.00 0.01 0.00 66 1023.0
20181209095444 43 217 0.0 2.0 0.00 0.01 0.00 67 1023.0
20181209094501 42 202 0.0 1.0 0.00 0.01 0.00 68 1023.3
20181209093509 42 128 0.0 0.0 0.00 0.01 0.00 69 1023.2
20181209092527 42 155 0.0 1.0 0.00 0.01 0.00 69 1023.4
20181209091543 42 207 0.0 0.0 0.00 0.01 0.00 69 1023.2
20181209090507 42 156 0.0 0.0 0.00 0.01 0.00 68 1023.4
20181209085511 42 209 0.0 0.0 0.00 0.01 0.00 67 1023.3
20181209084529 42 204 0.0 3.0 0.00 0.01 0.00 67 1023.7
20181209083530 41 113 0.0 3.0 0.00 0.01 0.00 68 1023.8
20181209082523 41 159 0.0 1.0 0.00 0.01 0.00 68 1023.8
20181209081513 41 54 0.0 2.0 0.00 0.01 0.00 68 1024.2
20181209080530 41 130 0.0 0.0 0.00 0.01 0.00 81 1024.1
20181209075504 39 217 0.0 0.0 0.00 0.01 0.01 82 1024.5
20181209074447 39 217 0.0 0.0 0.00 0.01 0.01 82 1024.6
20181209073438 39 217 0.0 0.0 0.00 0.01 0.01 82 1024.7
20181209072417 39 217 0.0 0.0 0.00 0.01 0.01 82 1024.8
20181209071404 39 217 0.0 0.0 0.00 0.01 0.01 82 1024.8
20181209070409 39 217 0.0 0.0 0.00 0.01 0.01 82 1025.2
20181209065404 39 217 0.0 0.0 0.00 0.01 0.01 82 1025.3
20181209064350 39 217 0.0 0.0 0.00 0.01 0.01 81 1025.2
20181209063346 39 217 0.0 0.0 0.00 0.01 0.01 81 1025.4
20181209062403 40 217 0.0 0.0 0.00 0.01 0.01 80 1025.3
20181209061411 40 217 0.0 0.0 0.00 0.01 0.01 80 1025.2
20181209060401 40 217 0.0 0.0 0.00 0.01 0.01 79 1025.3
20181209055359 40 217 0.0 0.0 0.00 0.01 0.01 79 1025.2
20181209054357 40 217 0.0 0.0 0.00 0.01 0.01 79 1025.3
20181209053333 41 217 0.0 0.0 0.00 0.01 0.01 78 1025.1
20181209052258 41 217 0.0 0.0 0.00 0.01 0.01 77 1025.2
20181209051303 41 217 0.0 0.0 0.00 0.01 0.01 78 1025.3
20181209050312 41 217 0.0 0.0 0.00 0.01 0.01 78 1025.4
20181209045242 40 217 0.0 0.0 0.00 0.01 0.01 78 1025.5
20181209044236 40 217 0.0 0.0 0.00 0.01 0.01 78 1025.6
20181209043237 40 217 0.0 0.0 0.00 0.01 0.01 80 1025.8
20181209042232 40 213 0.0 0.0 0.00 0.01 0.01 80 1025.7
20181209041227 40 213 0.0 0.0 0.00 0.01 0.01 81 1025.8
20181209040221 40 213 0.0 0.0 0.00 0.01 0.01 82 1026.0
20181209035207 39 213 0.0 0.0 0.00 0.01 0.01 83 1025.9
20181209034133 39 213 0.0 0.0 0.00 0.01 0.01 84 1026.0
20181209033105 39 213 0.0 0.0 0.00 0.01 0.01 84 1026.1
20181209032119 39 213 0.0 0.0 0.00 0.01 0.01 84 1026.1
20181209031136 39 213 0.0 0.0 0.00 0.01 0.01 84 1026.2
20181209030121 39 213 0.0 0.0 0.00 0.01 0.01 83 1026.2
20181209025111 39 213 0.0 0.0 0.00 0.01 0.01 83 1026.2
20181209024049 39 213 0.0 0.0 0.00 0.01 0.01 83 1026.2
20181209023044 39 213 0.0 0.0 0.00 0.01 0.01 83 1026.3
20181209022056 39 213 0.0 0.0 0.00 0.01 0.01 83 1026.3
20181209021032 39 213 0.0 0.0 0.00 0.01 0.01 84 1026.4
20181209020009 39 213 0.0 0.0 0.00 0.01 0.01 84 1026.4
20181209015003 39 213 0.0 0.0 0.00 0.01 0.01 84 1026.6
20181209013948 39 213 0.0 0.0 0.00 0.01 0.01 84 1026.6
20181209012917 39 213 0.0 0.0 0.00 0.01 0.01 84 1026.6
20181209011848 39 213 0.0 0.0 0.00 0.01 0.01 84 1026.7
20181209010829 39 213 0.0 0.0 0.00 0.01 0.01 83 1026.7
20181209005840 39 213 0.0 0.0 0.00 0.01 0.01 83 1026.7
20181209004824 40 213 0.0 0.0 0.00 0.01 0.01 83 1026.8
20181209003840 40 213 0.0 0.0 0.00 0.01 0.01 83 1026.8
20181209002830 41 213 0.0 0.0 0.00 0.01 0.01 83 1026.8
20181209001840 41 213 0.0 0.0 0.00 0.01 0.01 82 1026.8
20181209000847 41 213 0.0 0.0 0.00 0.01 0.01 82 1026.8
20181208235856 42 213 0.0 0.0 0.00 0.01 0.01 83 1026.7
20181208234827 42 213 0.0 0.0 0.00 0.01 0.01 83 1026.7
20181208233755 42 213 0.0 0.0 0.00 0.01 0.01 83 1026.8
20181208232723 43 213 0.0 0.0 0.00 0.01 0.01 83 1026.9
20181208231702 43 213 0.0 0.0 0.00 0.01 0.01 84 1027.0
20181208230658 43 213 0.0 0.0 0.00 0.01 0.01 85 1027.1
20181208225655 43 213 0.0 0.0 0.00 0.01 0.01 85 1027.3
20181208224639 43 213 0.0 0.0 0.00 0.01 0.01 86 1027.3
20181208223624 42 213 0.0 0.0 0.00 0.02 0.01 86 1027.4
20181208222619 42 213 0.0 0.0 0.00 0.02 0.01 86 1027.4
20181208221546 42 213 0.0 0.0 0.00 0.02 0.01 87 1027.4
20181208220545 42 213 0.0 0.0 0.00 0.02 0.01 87 1027.4
20181208215537 41 213 0.0 0.0 0.00 0.02 0.01 88 1027.3
20181208214543 41 213 0.0 0.0 0.00 0.02 0.01 88 1027.3
20181208213533 41 213 0.0 0.0 0.00 0.02 0.01 88 1027.3
20181208212524 40 213 0.0 0.0 0.00 0.02 0.01 89 1027.4
20181208211534 40 213 0.0 0.0 0.00 0.02 0.01 89 1027.4
20181208210547 40 213 0.0 0.0 0.00 0.02 0.01 89 1027.4
20181208205553 40 213 0.0 0.0 0.00 0.02 0.01 89 1027.4
20181208204610 39 213 0.0 0.0 0.00 0.02 0.01 89 1027.5
20181208203621 39 213 0.0 0.0 0.00 0.02 0.01 88 1027.5
20181208202633 39 213 0.0 0.0 0.00 0.02 0.01 88 1027.7
20181208201604 39 213 0.0 0.0 0.00 0.02 0.01 88 1027.6
20181208200557 39 213 0.0 0.0 0.00 0.02 0.01 87 1027.7
20181208195534 39 213 0.0 0.0 0.00 0.02 0.01 87 1027.7
20181208194531 39 213 0.0 0.0 0.00 0.02 0.01 86 1027.8
20181208193553 39 213 0.0 0.0 0.00 0.02 0.01 86 1027.7
20181208192537 39 213 0.0 0.0 0.00 0.02 0.01 85 1027.7